Airfield :
LOGIN :

Register | Disclaimer

   EN    FR    IT 

 










Legend :    VFR   Marginal VFR   IFR   Intensive IFR   Very Intensive IFR
Visi :
Ceiling :
>= 8 km
>= 3000ft
5 to 8 km
1000 to 3000 ft
1500m to 5 km
500 to 1000 ft
800 to 1500m
200 to 500 ft
< 800m
< 200 ft
Symbols :   Thunderstorms  Fog  Heavy snow  Heavy precipitations  Wind > 20 kt
SIGMETs :     Misc.  Thunderstorms  Icing  Turbulence  Mountain Waves  Volcanic Ashes







- Airport Elevation : 3125 ft
- IATA code : ESB


LTAC - Ankara Esenboga

CURRENT METAR :
  • 181420Z 04023G34KT 9999 -TSRA FEW030CB BKN035 20/13 Q1013 BECMG VRB02KT NSW

EXPIRED METARs :
  • 181350Z 36024KT 9999 FEW030CB BKN035 21/10 Q1013 BECMG TL1450 VRB02KT TEMPO -TSRA
  • 181320Z 35005KT 9999 FEW030CB BKN035 25/12 Q1012 TEMPO 04015G25KT -TSRA
  • 181250Z 29007KT 9999 SCT035 SCT100 26/13 Q1011 NOSIG RMK RWY21L VRB04KT RWY03L VRB04KT RWY21R 22005KT 160V280
  • 181220Z 27006KT 9999 SCT035 SCT100 25/12 Q1012 TEMPO 04015G25KT -TSRA
  • 181150Z 29011KT 9999 SCT035 SCT100 24/10 Q1013 TEMPO 04015G25KT -TSRA

TAF TAF LTAC
Valid from the 18 at 12:00 until the 19 at 12:00 UTC


181040Z 1812/1912 VRB02KT 9999 SCT040
TEMPO 1812/1816 04015G25KT -TSRA SCT025CB BKN030
No reported NOTAMs for that airfield.



MET'MAP, your aeronautical weather chart ! - Copyright ORBIFLY December 2007 - Disclaimer

ORBIFLY MET'MAP TEAM :

Programming & Development : Alexandra Zaïnal
Concept & Development : Baudouin d'Aumeries
Co-Development & Prog : Marc-Olivier Méhu
Technical & hardware support : Manuel Goepfert

Contact : metmap@orbifly.com




SOURCES & CREDITS :

   NOAA